Time;durP1;ratioP1;P1;durP2;ratioP2;P2;SDS_P1;SDS_P2;PMS_P1;PMS_P2;Temp;Humidity;BMP_temperature;BMP_pressure;BME280_temperature;BME280_humidity;BME280_pressure;Samples;Min_cycle;Max_cycle;Signal;HPM_P1;HPM_P2
2022/06/26 00:00:15;;;;;;;24.13;22.33;;;21.60;1.00;;;;;;6288538;28;20240;-53
2022/06/26 00:03:18;;;;;;;23.23;21.53;;;21.60;1.00;;;;;;6328752;28;20738;-55
2022/06/26 00:06:21;;;;;;;23.27;21.57;;;21.60;1.00;;;;;;6314484;28;20260;-54
2022/06/26 00:09:24;;;;;;;22.83;21.13;;;21.60;1.00;;;;;;6328828;28;20240;-56
2022/06/26 00:12:30;;;;;;;22.83;21.07;;;21.50;1.00;;;;;;6325825;28;20235;-55
2022/06/26 00:15:34;;;;;;;24.20;22.30;;;21.50;1.00;;;;;;6333343;28;20270;-55
2022/06/26 00:18:37;;;;;;;21.60;20.00;;;21.50;1.00;;;;;;6332881;28;20723;-55
2022/06/26 00:21:40;;;;;;;23.33;21.53;;;21.50;1.00;;;;;;6324533;28;20230;-55
2022/06/26 00:24:43;;;;;;;22.33;20.53;;;21.50;1.00;;;;;;6333221;28;20365;-54
2022/06/26 00:27:46;;;;;;;23.87;21.97;;;21.50;1.00;;;;;;6334340;28;20334;-54
2022/06/26 00:30:51;;;;;;;22.50;20.90;;;21.40;1.00;;;;;;6332648;28;20492;-54
2022/06/26 00:33:54;;;;;;;23.90;22.20;;;21.40;1.00;;;;;;6328696;28;20251;-55
2022/06/26 00:36:57;;;;;;;23.67;21.80;;;21.40;1.00;;;;;;6323154;28;20538;-54
2022/06/26 00:40:00;;;;;;;22.73;21.03;;;21.40;1.00;;;;;;6328393;28;20259;-56
2022/06/26 00:43:03;;;;;;;24.33;22.43;;;21.40;1.00;;;;;;6326362;28;20609;-56
2022/06/26 00:46:07;;;;;;;25.33;23.33;;;21.30;1.00;;;;;;6333547;28;20648;-54
2022/06/26 00:49:10;;;;;;;25.67;23.67;;;21.30;1.00;;;;;;6332652;28;20596;-55
2022/06/26 00:52:14;;;;;;;27.23;25.07;;;21.30;1.00;;;;;;6321845;28;20232;-55
2022/06/26 00:55:17;;;;;;;26.17;24.23;;;21.30;1.00;;;;;;6334290;28;20249;-54
2022/06/26 00:58:20;;;;;;;26.80;24.70;;;21.20;1.00;;;;;;6331344;28;20512;-55
2022/06/26 01:01:24;;;;;;;27.60;25.00;;;21.20;1.00;;;;;;6321140;28;20247;-56
2022/06/26 01:04:27;;;;;;;25.03;23.13;;;21.20;1.00;;;;;;6330208;28;20599;-55
2022/06/26 01:07:32;;;;;;;24.83;23.00;;;21.20;1.00;;;;;;6321415;28;20266;-54
2022/06/26 01:10:36;;;;;;;24.37;22.47;;;21.10;1.00;;;;;;6316493;28;20297;-56
2022/06/26 01:13:38;;;;;;;23.23;21.53;;;21.10;1.00;;;;;;6332198;28;20234;-56
2022/06/26 01:16:43;;;;;;;23.93;22.30;;;21.10;1.00;;;;;;6331874;28;20545;-54
2022/06/26 01:19:47;;;;;;;26.53;24.03;;;21.10;1.00;;;;;;6328141;28;20315;-55
2022/06/26 01:23:02;;;;;;;25.50;23.50;;;21.10;1.00;;;;;;6320359;28;20323;-54
2022/06/26 01:26:05;;;;;;;25.07;23.17;;;21.10;1.00;;;;;;6328407;28;20701;-54
2022/06/26 01:29:09;;;;;;;23.97;22.17;;;21.00;1.00;;;;;;6324318;28;20288;-56
2022/06/26 01:32:13;;;;;;;27.97;25.67;;;21.00;1.00;;;;;;6321179;28;20239;-56
2022/06/26 01:35:15;;;;;;;26.37;24.23;;;21.00;1.00;;;;;;6332595;28;20345;-55
2022/06/26 01:38:23;;;;;;;26.77;24.67;;;21.00;1.00;;;;;;6322567;28;20240;-55
2022/06/26 01:41:26;;;;;;;26.70;24.73;;;21.00;1.00;;;;;;6324735;28;20394;-55
2022/06/26 01:44:31;;;;;;;25.47;23.50;;;21.00;1.00;;;;;;6332676;28;20242;-55
2022/06/26 01:47:34;;;;;;;28.33;26.23;;;20.90;1.00;;;;;;6325348;28;20244;-56
2022/06/26 01:50:38;;;;;;;27.33;25.13;;;20.90;1.00;;;;;;6310594;28;20235;-56
2022/06/26 01:53:48;;;;;;;23.53;21.70;;;20.90;1.00;;;;;;6328575;28;20236;-54
2022/06/26 01:56:51;;;;;;;23.83;22.13;;;20.90;1.00;;;;;;6330497;28;20228;-56
2022/06/26 01:59:54;;;;;;;24.77;22.77;;;20.90;1.00;;;;;;6330846;28;20704;-56
2022/06/26 02:02:57;;;;;;;24.60;22.80;;;20.90;1.00;;;;;;6328241;28;20719;-55
2022/06/26 02:06:00;;;;;;;25.47;23.57;;;20.80;1.00;;;;;;6313160;28;20236;-55
2022/06/26 02:09:05;;;;;;;23.70;22.07;;;20.90;1.00;;;;;;6327104;28;20242;-55
2022/06/26 02:15:29;;;;;;;24.57;22.63;;;20.80;1.00;;;;;;6326228;28;20358;-55
2022/06/26 02:18:33;;;;;;;25.33;23.43;;;20.80;1.00;;;;;;6322334;28;20231;-56
2022/06/26 02:21:39;;;;;;;26.60;24.60;;;20.80;1.00;;;;;;6327613;28;20614;-56
2022/06/26 02:24:44;;;;;;;26.13;24.10;;;20.80;1.00;;;;;;6327989;28;20342;-55
2022/06/26 02:27:48;;;;;;;24.77;22.87;;;20.80;1.00;;;;;;6328543;28;20250;-55
2022/06/26 02:30:50;;;;;;;24.63;22.77;;;20.80;1.00;;;;;;6334351;28;20277;-56
2022/06/26 02:33:54;;;;;;;24.63;22.93;;;20.70;1.00;;;;;;6331123;28;20755;-55
2022/06/26 02:36:57;;;;;;;26.27;24.27;;;20.70;1.00;;;;;;6324958;28;20289;-57
2022/06/26 02:40:01;;;;;;;26.07;23.90;;;20.70;1.00;;;;;;6330668;28;20510;-56
2022/06/26 02:43:04;;;;;;;26.00;23.87;;;20.70;1.00;;;;;;6327650;28;20783;-56
2022/06/26 02:46:07;;;;;;;24.23;22.43;;;20.70;1.00;;;;;;6331740;28;20326;-55
2022/06/26 02:49:10;;;;;;;27.90;25.70;;;20.70;1.00;;;;;;6328566;28;20248;-56
2022/06/26 02:52:13;;;;;;;27.23;25.10;;;20.60;1.00;;;;;;6327122;28;20242;-56
2022/06/26 02:55:18;;;;;;;31.00;28.60;;;20.70;1.00;;;;;;6334469;28;20316;-56
2022/06/26 02:58:21;;;;;;;26.67;24.67;;;20.60;1.00;;;;;;6327876;28;20232;-55
2022/06/26 03:01:24;;;;;;;26.87;24.87;;;20.60;1.00;;;;;;6321700;28;20461;-55
2022/06/26 03:04:33;;;;;;;28.27;26.07;;;20.60;1.00;;;;;;6327789;28;20850;-55
2022/06/26 03:07:36;;;;;;;30.20;27.80;;;20.60;1.00;;;;;;6317958;28;20280;-54
2022/06/26 03:10:41;;;;;;;27.43;25.23;;;20.60;1.00;;;;;;6331203;28;20280;-56
2022/06/26 03:13:44;;;;;;;29.87;27.43;;;20.60;1.00;;;;;;6335157;28;20325;-55
2022/06/26 03:16:47;;;;;;;27.13;25.23;;;20.60;1.00;;;;;;6332740;28;20326;-55
2022/06/26 03:19:50;;;;;;;26.97;24.97;;;20.60;1.00;;;;;;6326935;28;20735;-56
2022/06/26 03:22:53;;;;;;;29.97;27.57;;;20.70;1.00;;;;;;6329415;28;20318;-55
2022/06/26 03:25:57;;;;;;;31.53;28.97;;;20.70;1.00;;;;;;6329472;28;20501;-56
2022/06/26 03:29:01;;;;;;;32.33;29.73;;;20.70;1.00;;;;;;6332615;28;20296;-55
2022/06/26 03:32:05;;;;;;;29.93;27.60;;;20.70;1.00;;;;;;6315839;28;20792;-54
2022/06/26 03:35:09;;;;;;;30.17;27.90;;;20.80;1.00;;;;;;6318500;28;20839;-55
2022/06/26 03:38:12;;;;;;;28.57;26.50;;;20.80;1.00;;;;;;6312514;28;20243;-55
2022/06/26 03:41:16;;;;;;;24.40;22.60;;;20.90;1.00;;;;;;6321151;28;20244;-55
2022/06/26 03:44:19;;;;;;;27.80;25.80;;;20.90;1.00;;;;;;6323767;28;20311;-55
2022/06/26 03:47:25;;;;;;;30.30;27.93;;;21.00;1.00;;;;;;6325622;28;20242;-56
2022/06/26 03:50:28;;;;;;;27.97;25.87;;;21.20;1.00;;;;;;6323991;28;20304;-56
2022/06/26 03:53:34;;;;;;;26.30;24.50;;;21.20;1.00;;;;;;6324996;28;20236;-55
2022/06/26 03:56:42;;;;;;;25.77;23.93;;;21.30;1.00;;;;;;6330634;28;20637;-55
2022/06/26 03:59:48;;;;;;;27.90;25.57;;;21.30;1.00;;;;;;6328474;28;20534;-56
2022/06/26 04:02:51;;;;;;;26.57;24.60;;;21.40;1.00;;;;;;6325623;28;20280;-55
2022/06/26 04:05:54;;;;;;;24.20;22.40;;;21.50;1.00;;;;;;6317238;28;20330;-56
2022/06/26 04:08:57;;;;;;;26.43;24.63;;;21.60;1.00;;;;;;6325103;28;20801;-54
2022/06/26 04:12:01;;;;;;;28.30;26.10;;;21.70;1.00;;;;;;6322332;28;20308;-57
2022/06/26 04:15:05;;;;;;;25.73;23.77;;;21.80;1.00;;;;;;6327542;28;20393;-56
2022/06/26 04:18:09;;;;;;;23.20;21.50;;;21.80;1.00;;;;;;6317926;28;20469;-56
2022/06/26 04:21:12;;;;;;;24.30;22.53;;;22.00;1.00;;;;;;6326109;28;20236;-54
2022/06/26 04:24:14;;;;;;;23.67;21.93;;;22.00;1.00;;;;;;6329286;28;20325;-56
2022/06/26 04:27:19;;;;;;;21.37;19.87;;;22.10;1.00;;;;;;6319224;28;20242;-55
2022/06/26 04:30:22;;;;;;;24.17;22.47;;;22.20;1.00;;;;;;6308577;28;20229;-56
2022/06/26 04:33:26;;;;;;;24.70;22.90;;;22.30;1.00;;;;;;6318438;28;20678;-54
2022/06/26 04:36:29;;;;;;;23.77;22.07;;;22.40;1.00;;;;;;6312730;28;20257;-54
2022/06/26 04:39:32;;;;;;;22.07;20.47;;;22.50;1.00;;;;;;6319723;28;20369;-53
2022/06/26 04:42:44;;;;;;;24.50;22.53;;;22.70;1.00;;;;;;6323798;28;20337;-54
2022/06/26 04:45:47;;;;;;;22.90;21.30;;;22.80;1.00;;;;;;6324850;28;20761;-55
2022/06/26 04:48:51;;;;;;;23.27;21.47;;;22.90;1.00;;;;;;6316485;28;20705;-56
2022/06/26 04:51:54;;;;;;;22.20;20.60;;;23.00;1.00;;;;;;6323689;28;20325;-55
2022/06/26 04:55:05;;;;;;;21.60;20.10;;;23.10;1.00;;;;;;6324506;28;20253;-55
2022/06/26 04:58:09;;;;;;;22.90;21.20;;;23.20;1.00;;;;;;6322599;28;20329;-55
2022/06/26 05:01:12;;;;;;;24.03;22.23;;;23.10;1.00;;;;;;6322064;28;20504;-55
2022/06/26 05:04:15;;;;;;;22.93;21.37;;;23.10;1.00;;;;;;6325229;28;20296;-56
2022/06/26 05:07:18;;;;;;;19.73;18.43;;;23.10;1.00;;;;;;6320530;28;20405;-56
2022/06/26 05:10:21;;;;;;;18.63;17.43;;;23.10;1.00;;;;;;6325978;28;20704;-56
2022/06/26 05:13:26;;;;;;;23.17;21.40;;;23.10;1.00;;;;;;6330829;28;20316;-55
2022/06/26 05:16:29;;;;;;;21.30;19.70;;;23.20;1.00;;;;;;6326329;27;20403;-55
2022/06/26 05:19:32;;;;;;;19.97;18.37;;;23.20;1.00;;;;;;6326831;28;20758;-54
2022/06/26 05:22:35;;;;;;;20.90;19.53;;;23.30;1.00;;;;;;6319843;28;20460;-55
2022/06/26 05:25:38;;;;;;;21.00;19.37;;;23.30;1.00;;;;;;6323503;28;20228;-54
2022/06/26 05:28:47;;;;;;;22.77;21.10;;;23.40;1.00;;;;;;6313282;28;20274;-54
2022/06/26 05:31:50;;;;;;;20.47;19.07;;;23.50;1.00;;;;;;6323062;28;20760;-57
2022/06/26 05:34:55;;;;;;;18.90;17.70;;;23.50;1.00;;;;;;6315908;28;20723;-56
2022/06/26 05:37:58;;;;;;;20.30;19.00;;;23.60;1.00;;;;;;6313498;28;20236;-55
2022/06/26 05:41:01;;;;;;;18.70;17.60;;;23.70;1.00;;;;;;6328644;28;20718;-55
2022/06/26 05:44:06;;;;;;;19.93;18.60;;;23.80;1.00;;;;;;6323331;28;20242;-56
2022/06/26 05:47:08;;;;;;;22.23;20.67;;;23.80;1.00;;;;;;6307155;28;20716;-54
2022/06/26 05:50:13;;;;;;;22.30;20.70;;;23.90;1.00;;;;;;6319612;28;20232;-55
2022/06/26 05:53:17;;;;;;;24.53;22.63;;;24.00;1.00;;;;;;6317152;28;20252;-55
2022/06/26 05:56:20;;;;;;;23.70;21.97;;;24.00;1.00;;;;;;6331474;28;20757;-55
2022/06/26 05:59:24;;;;;;;23.80;22.10;;;24.20;1.00;;;;;;6321904;28;20231;-55
2022/06/26 06:02:27;;;;;;;23.73;22.13;;;24.40;1.00;;;;;;6320547;28;20252;-55
2022/06/26 06:05:30;;;;;;;21.70;20.10;;;24.70;1.00;;;;;;6331706;28;20227;-56
2022/06/26 06:08:33;;;;;;;21.80;20.10;;;25.20;1.00;;;;;;6309553;28;20256;-57
2022/06/26 06:11:36;;;;;;;19.83;18.17;;;25.70;1.00;;;;;;6320617;28;20314;-56
2022/06/26 06:14:40;;;;;;;19.87;18.37;;;26.20;1.00;;;;;;6329865;28;20759;-54
2022/06/26 06:17:50;;;;;;;19.23;18.03;;;26.70;1.00;;;;;;6333130;28;20724;-54
2022/06/26 06:20:54;;;;;;;17.13;16.07;;;27.10;1.00;;;;;;6327563;28;20232;-55
2022/06/26 06:24:12;;;;;;;17.13;16.03;;;27.20;1.00;;;;;;6331133;28;20232;-55
2022/06/26 06:27:17;;;;;;;16.53;15.37;;;27.60;1.00;;;;;;6308966;28;20762;-55
2022/06/26 06:30:21;;;;;;;14.87;13.83;;;28.00;1.00;;;;;;6295036;28;20320;-54
2022/06/26 06:33:27;;;;;;;13.30;12.03;;;28.20;1.00;;;;;;6325296;28;20296;-55
2022/06/26 06:36:30;;;;;;;12.67;11.87;;;28.20;1.00;;;;;;6318549;28;20357;-55
2022/06/26 06:39:33;;;;;;;10.30;9.80;;;28.60;1.00;;;;;;6326624;28;20259;-53
2022/06/26 06:42:36;;;;;;;10.27;9.50;;;28.80;1.00;;;;;;6331986;28;20224;-55
2022/06/26 06:45:53;;;;;;;9.45;8.95;;;29.10;1.00;;;;;;6326884;28;20255;-55
2022/06/26 06:48:55;;;;;;;8.93;8.25;;;29.20;1.00;;;;;;6318639;28;20659;-54
2022/06/26 06:51:59;;;;;;;9.77;9.25;;;28.90;1.00;;;;;;6323247;28;20364;-55
2022/06/26 06:55:02;;;;;;;10.10;9.50;;;29.00;1.00;;;;;;6334848;28;20240;-55
2022/06/26 06:58:06;;;;;;;9.65;9.00;;;29.10;1.00;;;;;;6333104;28;20239;-54
2022/06/26 07:01:10;;;;;;;10.80;10.10;;;29.10;1.00;;;;;;6318950;28;20255;-55
2022/06/26 07:04:13;;;;;;;8.93;8.38;;;29.30;1.00;;;;;;6325566;28;20638;-54
2022/06/26 07:07:16;;;;;;;9.73;9.30;;;29.30;1.00;;;;;;6314210;28;20286;-49
2022/06/26 07:10:19;;;;;;;10.10;9.70;;;29.60;1.00;;;;;;6324185;28;20236;-53
2022/06/26 07:13:22;;;;;;;10.15;9.65;;;29.90;1.00;;;;;;6329000;28;20372;-56
2022/06/26 07:16:29;;;;;;;9.73;9.10;;;29.90;1.00;;;;;;6322560;28;20229;-54
2022/06/26 07:19:36;;;;;;;11.98;11.05;;;30.10;1.00;;;;;;6322501;28;20277;-54
2022/06/26 07:22:39;;;;;;;11.07;10.43;;;30.30;1.00;;;;;;6325689;28;20224;-55
2022/06/26 07:25:42;;;;;;;11.20;10.60;;;30.30;1.00;;;;;;6334370;28;20715;-56
2022/06/26 07:28:44;;;;;;;9.32;8.73;;;30.20;1.00;;;;;;6326076;28;20308;-55
2022/06/26 07:31:50;;;;;;;7.80;7.15;;;30.30;1.00;;;;;;6313257;28;20264;-54
2022/06/26 07:34:53;;;;;;;6.75;6.50;;;30.30;1.00;;;;;;6323990;28;20896;-54
2022/06/26 07:37:56;;;;;;;6.45;6.22;;;30.40;1.00;;;;;;6321562;28;20223;-54
2022/06/26 07:40:59;;;;;;;6.60;6.40;;;30.40;1.00;;;;;;6320848;28;20726;-55
2022/06/26 07:44:02;;;;;;;6.80;6.50;;;30.30;1.00;;;;;;6327089;28;20243;-55
2022/06/26 07:47:08;;;;;;;7.07;6.70;;;30.10;1.00;;;;;;6324718;28;20848;-55
2022/06/26 07:50:10;;;;;;;8.90;8.38;;;30.00;1.00;;;;;;6322140;28;20690;-54
2022/06/26 07:53:13;;;;;;;7.80;7.50;;;29.90;1.00;;;;;;6314454;28;20478;-53
2022/06/26 07:56:16;;;;;;;7.57;7.28;;;29.80;1.00;;;;;;6323890;28;20228;-54
2022/06/26 07:59:20;;;;;;;8.07;7.72;;;29.70;1.00;;;;;;6324641;28;20309;-54
2022/06/26 08:02:25;;;;;;;6.57;6.22;;;29.70;1.00;;;;;;6326660;28;20324;-54
2022/06/26 08:05:28;;;;;;;7.93;7.40;;;29.60;1.00;;;;;;6318842;28;20240;-53
2022/06/26 08:08:51;;;;;;;7.10;6.90;;;29.60;1.00;;;;;;6312363;28;20822;-53
2022/06/26 08:11:54;;;;;;;7.57;7.28;;;29.60;1.00;;;;;;6324479;28;20534;-55
2022/06/26 08:14:57;;;;;;;6.78;6.47;;;29.40;1.00;;;;;;6324230;28;20239;-54
2022/06/26 08:18:02;;;;;;;7.00;6.60;;;29.40;1.00;;;;;;6316609;28;20317;-53
2022/06/26 08:24:30;;;;;;;7.15;6.82;;;29.40;1.00;;;;;;6315081;28;20324;-53
2022/06/26 08:27:33;;;;;;;7.22;6.82;;;29.50;1.00;;;;;;6331231;28;20724;-54
2022/06/26 08:30:36;;;;;;;7.40;7.10;;;29.40;1.00;;;;;;6321735;28;20635;-53
2022/06/26 08:33:41;;;;;;;7.03;6.53;;;29.20;1.00;;;;;;6319166;28;20768;-54
2022/06/26 08:36:44;;;;;;;6.55;6.32;;;29.20;1.00;;;;;;6321264;28;20390;-54
2022/06/26 08:39:47;;;;;;;7.07;6.80;;;29.10;1.00;;;;;;6329553;28;20330;-53
2022/06/26 08:42:52;;;;;;;6.05;5.60;;;29.20;1.00;;;;;;6322145;28;20275;-54
2022/06/26 08:45:56;;;;;;;6.95;6.55;;;29.30;1.00;;;;;;6322212;28;20392;-50
2022/06/26 08:49:02;;;;;;;6.97;6.57;;;29.30;1.00;;;;;;6322912;28;20256;-52
2022/06/26 08:52:09;;;;;;;6.43;6.20;;;29.40;1.00;;;;;;6307960;28;20492;-53
2022/06/26 08:55:15;;;;;;;5.43;5.32;;;29.50;1.00;;;;;;6314114;28;20772;-55
2022/06/26 08:58:18;;;;;;;7.38;6.97;;;29.50;1.00;;;;;;6322131;28;20646;-54
2022/06/26 09:01:21;;;;;;;7.10;6.80;;;29.40;1.00;;;;;;6329015;28;20238;-54
2022/06/26 09:04:26;;;;;;;7.00;6.70;;;29.30;1.00;;;;;;6319097;28;20235;-53
2022/06/26 09:07:29;;;;;;;7.43;6.90;;;29.30;1.00;;;;;;6301166;28;20255;-54
2022/06/26 09:10:37;;;;;;;6.55;6.10;;;29.50;1.00;;;;;;6328563;28;20411;-53
2022/06/26 09:13:43;;;;;;;6.20;5.90;;;29.80;1.00;;;;;;6329036;28;20727;-52
2022/06/26 09:16:48;;;;;;;5.40;5.28;;;30.00;1.00;;;;;;6322558;28;20323;-53
2022/06/26 09:19:55;;;;;;;5.40;5.10;;;30.00;1.00;;;;;;6321182;28;20232;-51
2022/06/26 09:23:01;;;;;;;5.78;5.63;;;30.10;1.00;;;;;;6318029;28;20319;-53
2022/06/26 09:26:05;;;;;;;6.70;6.07;;;30.30;1.00;;;;;;6328014;28;20315;-53
2022/06/26 09:29:11;;;;;;;7.10;6.70;;;30.40;1.00;;;;;;6313280;28;20548;-54
2022/06/26 09:32:15;;;;;;;7.40;6.93;;;30.30;1.00;;;;;;6314253;28;20537;-55
2022/06/26 09:35:24;;;;;;;7.63;7.30;;;30.30;1.00;;;;;;6315255;28;20323;-54
2022/06/26 09:38:29;;;;;;;6.85;6.55;;;30.40;1.00;;;;;;6315638;28;20402;-53
2022/06/26 09:41:34;;;;;;;5.90;5.70;;;30.30;1.00;;;;;;6333465;27;20702;-56
2022/06/26 09:44:44;;;;;;;6.35;6.05;;;30.40;1.00;;;;;;6300601;27;20227;-51
2022/06/26 09:47:48;;;;;;;6.63;6.43;;;30.20;1.00;;;;;;6327228;27;20345;-54
2022/06/26 09:50:53;;;;;;;6.47;6.25;;;30.40;1.00;;;;;;6337330;28;20652;-53
2022/06/26 09:53:58;;;;;;;6.50;6.30;;;30.60;1.00;;;;;;6333440;27;20732;-53
2022/06/26 09:57:01;;;;;;;7.13;6.72;;;30.70;1.00;;;;;;6332332;27;20301;-54
2022/06/26 10:00:06;;;;;;;6.88;6.47;;;30.80;1.00;;;;;;6332902;28;20227;-53
2022/06/26 10:06:35;;;;;;;6.45;5.95;;;30.60;1.00;;;;;;6312176;28;20304;-53
2022/06/26 10:09:40;;;;;;;6.32;6.10;;;30.60;1.00;;;;;;6323380;27;20612;-53
2022/06/26 10:12:45;;;;;;;6.30;6.05;;;30.70;1.00;;;;;;6326601;27;20746;-52
2022/06/26 10:15:54;;;;;;;6.28;6.07;;;30.90;1.00;;;;;;6340698;28;20242;-53
2022/06/26 10:19:08;;;;;;;5.65;5.45;;;31.10;1.00;;;;;;6331832;28;20243;-54
2022/06/26 10:22:13;;;;;;;5.68;5.40;;;30.90;1.00;;;;;;6330387;28;20242;-52
2022/06/26 10:25:27;;;;;;;6.78;6.47;;;30.90;1.00;;;;;;6339510;28;20718;-53
2022/06/26 10:28:54;;;;;;;6.55;6.35;;;30.70;1.00;;;;;;6332793;27;20244;-53
2022/06/26 10:31:58;;;;;;;6.97;6.65;;;30.40;1.00;;;;;;6318743;27;20750;-53
2022/06/26 10:35:03;;;;;;;6.10;5.80;;;30.10;1.00;;;;;;6328673;27;20590;-54
2022/06/26 10:38:24;;;;;;;6.07;5.80;;;30.20;1.00;;;;;;6327901;28;20757;-54
2022/06/26 10:45:05;;;;;;;6.38;5.95;;;30.50;1.00;;;;;;6330527;27;20390;-54
2022/06/26 10:48:19;;;;;;;6.43;6.22;;;30.60;1.00;;;;;;6334784;27;20550;-53
2022/06/26 10:51:27;;;;;;;7.03;6.40;;;30.70;1.00;;;;;;6316851;28;20236;-53
2022/06/26 10:54:33;;;;;;;6.13;5.93;;;30.80;1.00;;;;;;6332027;28;20614;-54
2022/06/26 10:57:37;;;;;;;6.35;5.93;;;30.90;1.00;;;;;;6321418;28;20922;-53
2022/06/26 11:00:42;;;;;;;5.80;5.50;;;31.10;1.00;;;;;;6323384;28;20231;-54
2022/06/26 11:03:45;;;;;;;5.88;5.60;;;31.10;1.00;;;;;;6330277;28;20227;-53
2022/06/26 11:06:50;;;;;;;5.97;5.47;;;31.10;1.00;;;;;;6322547;28;20231;-53
2022/06/26 11:09:58;;;;;;;6.32;6.03;;;31.20;1.00;;;;;;6325014;28;20260;-52
2022/06/26 11:13:01;;;;;;;6.05;5.85;;;31.20;1.00;;;;;;6332605;28;20332;-52
2022/06/26 11:16:04;;;;;;;5.72;5.43;;;31.10;1.00;;;;;;6329906;28;20248;-53
2022/06/26 11:19:09;;;;;;;6.07;5.78;;;30.80;1.00;;;;;;6332471;27;20616;-53
2022/06/26 11:22:13;;;;;;;5.88;5.57;;;30.80;1.00;;;;;;6323971;28;20319;-53
2022/06/26 11:25:22;;;;;;;5.85;5.55;;;30.80;1.00;;;;;;6318040;28;20261;-53
2022/06/26 11:28:29;;;;;;;6.03;5.80;;;30.80;1.00;;;;;;6326417;28;20232;-53
2022/06/26 11:31:33;;;;;;;5.40;5.20;;;30.80;1.00;;;;;;6331021;28;20921;-53
2022/06/26 11:34:49;;;;;;;5.97;5.78;;;30.80;1.00;;;;;;6329555;28;20456;-54
2022/06/26 11:37:51;;;;;;;5.32;5.13;;;30.70;1.00;;;;;;6318468;28;20831;-54
2022/06/26 11:41:00;;;;;;;5.35;5.05;;;30.80;1.00;;;;;;6331973;28;20231;-54
2022/06/26 11:44:03;;;;;;;5.47;5.25;;;30.80;1.00;;;;;;6331691;28;20232;-52
2022/06/26 11:47:06;;;;;;;5.95;5.68;;;30.90;1.00;;;;;;6331205;28;20329;-53
2022/06/26 11:50:19;;;;;;;5.75;5.65;;;31.00;1.00;;;;;;6322452;28;20229;-51
2022/06/26 11:53:24;;;;;;;5.95;5.75;;;31.10;1.00;;;;;;6319915;28;20432;-53
2022/06/26 11:56:29;;;;;;;5.53;5.32;;;31.10;1.00;;;;;;6333796;28;20260;-54
2022/06/26 11:59:32;;;;;;;5.78;5.28;;;31.30;1.00;;;;;;6313937;28;20616;-53
2022/06/26 12:02:42;;;;;;;5.97;5.68;;;31.40;1.00;;;;;;6307309;28;20851;-53
2022/06/26 12:05:46;;;;;;;5.80;5.40;;;31.50;1.00;;;;;;6323784;28;20287;-53
2022/06/26 12:08:49;;;;;;;5.75;5.65;;;31.30;1.00;;;;;;6313448;28;20236;-53
2022/06/26 12:11:55;;;;;;;5.47;5.20;;;31.20;1.00;;;;;;6289723;28;20235;-52
2022/06/26 12:15:16;;;;;;;5.38;5.28;;;31.20;1.00;;;;;;6323142;28;20378;-55
2022/06/26 12:18:18;;;;;;;5.65;5.50;;;31.30;1.00;;;;;;6329101;27;20381;-53
2022/06/26 12:21:24;;;;;;;6.45;6.10;;;31.40;1.00;;;;;;6322653;28;20588;-54
2022/06/26 12:24:27;;;;;;;6.00;5.80;;;31.40;1.00;;;;;;6333937;27;20239;-54
2022/06/26 12:27:37;;;;;;;6.50;6.30;;;31.50;1.00;;;;;;6324932;28;20240;-52
2022/06/26 12:30:49;;;;;;;7.22;6.75;;;31.70;1.00;;;;;;6319080;28;20224;-52
2022/06/26 12:33:53;;;;;;;7.38;7.07;;;31.70;1.00;;;;;;6328535;27;20381;-54
2022/06/26 12:36:55;;;;;;;7.95;7.55;;;31.80;1.00;;;;;;6312102;28;20298;-53
2022/06/26 12:40:06;;;;;;;7.28;6.97;;;31.70;1.00;;;;;;6319960;28;20315;-54
2022/06/26 12:43:11;;;;;;;6.88;6.68;;;31.60;1.00;;;;;;6313097;28;20275;-54
2022/06/26 12:46:14;;;;;;;6.20;5.93;;;31.60;1.00;;;;;;6324401;28;20700;-54
2022/06/26 12:49:17;;;;;;;6.25;5.93;;;31.70;1.00;;;;;;6322078;28;20402;-53
2022/06/26 12:52:20;;;;;;;6.65;6.28;;;31.80;1.00;;;;;;6326109;27;20373;-54
2022/06/26 12:55:22;;;;;;;6.10;5.80;;;31.90;1.00;;;;;;6313698;27;20778;-54
2022/06/26 12:58:27;;;;;;;6.32;5.97;;;31.70;1.00;;;;;;6339814;27;20259;-53
2022/06/26 13:01:30;;;;;;;6.38;6.07;;;31.50;1.00;;;;;;6325047;28;20834;-53
2022/06/26 13:04:39;;;;;;;6.00;5.75;;;31.50;1.00;;;;;;6333670;27;20598;-54
2022/06/26 13:07:42;;;;;;;5.90;5.70;;;31.50;1.00;;;;;;6329974;27;20295;-53
2022/06/26 13:10:52;;;;;;;5.50;5.20;;;31.50;1.00;;;;;;6323655;28;20551;-54
2022/06/26 13:13:56;;;;;;;5.15;4.97;;;31.50;1.00;;;;;;6325370;28;20255;-55
2022/06/26 13:17:10;;;;;;;5.63;5.32;;;31.60;1.00;;;;;;6310232;28;20709;-53
2022/06/26 13:20:13;;;;;;;6.32;6.13;;;31.70;1.00;;;;;;6320542;28;20318;-52
2022/06/26 13:23:16;;;;;;;5.47;5.18;;;31.90;1.00;;;;;;6321164;28;20239;-52
2022/06/26 13:26:19;;;;;;;5.70;5.50;;;32.00;1.00;;;;;;6318005;28;20697;-53
2022/06/26 13:29:25;;;;;;;5.78;5.68;;;31.90;1.00;;;;;;6323126;28;20447;-53
2022/06/26 13:32:28;;;;;;;5.85;5.65;;;31.90;1.00;;;;;;6324618;28;20233;-54
2022/06/26 13:35:41;;;;;;;5.60;5.50;;;32.00;1.00;;;;;;6340216;27;20294;-53
2022/06/26 13:38:44;;;;;;;5.55;5.22;;;32.10;1.00;;;;;;6326312;28;20236;-53
2022/06/26 13:41:56;;;;;;;4.70;4.43;;;32.10;1.00;;;;;;6324581;28;20331;-54
2022/06/26 13:45:00;;;;;;;5.05;4.70;;;32.20;1.00;;;;;;6330550;28;20236;-54
2022/06/26 13:48:03;;;;;;;4.80;4.60;;;32.10;1.00;;;;;;6319995;28;20288;-52
2022/06/26 13:51:06;;;;;;;5.40;5.20;;;32.20;1.00;;;;;;6320510;28;20269;-53
2022/06/26 13:54:10;;;;;;;5.22;4.97;;;32.20;1.00;;;;;;6326651;28;20244;-52
2022/06/26 13:57:13;;;;;;;4.65;4.55;;;32.30;1.00;;;;;;6325033;28;20228;-52
2022/06/26 14:00:18;;;;;;;5.32;5.13;;;32.40;1.00;;;;;;6320463;28;20661;-53
2022/06/26 14:03:26;;;;;;;5.45;5.30;;;32.40;1.00;;;;;;6322127;28;20319;-55
2022/06/26 14:06:29;;;;;;;5.13;4.72;;;32.40;1.00;;;;;;6315649;28;20427;-53
2022/06/26 14:09:33;;;;;;;5.38;5.28;;;32.40;1.00;;;;;;6331046;28;20496;-54
2022/06/26 14:12:41;;;;;;;4.63;4.50;;;32.40;1.00;;;;;;6313738;28;20376;-53
2022/06/26 14:15:46;;;;;;;4.85;4.68;;;32.50;1.00;;;;;;6313595;28;20237;-54
2022/06/26 14:18:49;;;;;;;4.85;4.45;;;32.50;1.00;;;;;;6323378;28;20243;-54
2022/06/26 14:25:55;;;;;;;4.43;4.38;;;32.60;1.00;;;;;;6321905;28;20312;-54
2022/06/26 14:28:40;;;;;;;4.43;4.32;;;32.70;1.00;;;;;;6324167;28;20854;-53
2022/06/26 14:31:44;;;;;;;4.15;4.07;;;32.70;1.00;;;;;;6334261;27;20319;-56
2022/06/26 14:35:08;;;;;;;4.70;4.40;;;32.70;1.00;;;;;;6328114;28;20236;-54
2022/06/26 14:38:11;;;;;;;4.65;4.47;;;32.90;1.00;;;;;;6315923;28;20554;-54
2022/06/26 14:41:14;;;;;;;4.57;4.38;;;32.70;1.00;;;;;;6326052;28;20231;-53
2022/06/26 14:44:17;;;;;;;4.43;4.32;;;32.70;1.00;;;;;;6330610;28;20717;-53
2022/06/26 14:47:21;;;;;;;4.10;4.00;;;32.80;1.00;;;;;;6328027;28;20639;-52
2022/06/26 14:50:24;;;;;;;4.05;3.85;;;33.00;1.00;;;;;;6321910;27;20328;-54
2022/06/26 14:53:27;;;;;;;5.00;4.70;;;33.10;1.00;;;;;;6322211;28;20731;-56
2022/06/26 14:56:31;;;;;;;4.35;4.22;;;33.10;1.00;;;;;;6335568;27;20720;-61
2022/06/26 14:59:36;;;;;;;3.75;3.63;;;33.10;1.00;;;;;;6329534;27;20289;-54
2022/06/26 15:02:42;;;;;;;3.80;3.80;;;33.20;1.00;;;;;;6319824;28;20228;-56
2022/06/26 15:05:45;;;;;;;4.18;4.07;;;33.20;1.00;;;;;;6336764;27;20319;-53
2022/06/26 15:08:54;;;;;;;4.50;4.40;;;33.30;1.00;;;;;;6310722;28;20284;-54
2022/06/26 15:11:57;;;;;;;4.32;4.22;;;33.30;1.00;;;;;;6326121;28;20422;-53
2022/06/26 15:15:00;;;;;;;4.55;4.35;;;33.40;1.00;;;;;;6326894;28;20247;-56
2022/06/26 15:18:06;;;;;;;4.60;4.50;;;33.30;1.00;;;;;;6322096;28;20731;-53
2022/06/26 15:21:08;;;;;;;4.65;4.40;;;33.20;1.00;;;;;;6324903;28;20235;-57
2022/06/26 15:24:12;;;;;;;5.35;5.15;;;33.20;1.00;;;;;;6322800;28;20319;-54
2022/06/26 15:27:15;;;;;;;4.45;4.35;;;33.20;1.00;;;;;;6327964;27;20357;-54
2022/06/26 15:30:17;;;;;;;4.45;4.35;;;33.20;1.00;;;;;;6321056;28;20225;-56
2022/06/26 15:33:22;;;;;;;4.80;4.60;;;33.10;1.00;;;;;;6331779;27;20227;-53
2022/06/26 15:36:26;;;;;;;4.25;4.05;;;33.10;1.00;;;;;;6327757;28;20264;-55
2022/06/26 15:39:29;;;;;;;4.97;4.78;;;33.10;1.00;;;;;;6330417;28;20373;-53
2022/06/26 15:42:32;;;;;;;5.07;4.70;;;33.00;1.00;;;;;;6324677;28;20232;-54
2022/06/26 15:45:35;;;;;;;4.30;4.20;;;32.80;1.00;;;;;;6334920;27;20338;-54
2022/06/26 15:48:39;;;;;;;4.78;4.57;;;32.60;1.00;;;;;;6320552;28;20291;-55
2022/06/26 15:51:44;;;;;;;5.25;4.88;;;32.20;1.00;;;;;;6318650;28;20701;-55
2022/06/26 15:54:48;;;;;;;4.25;4.15;;;32.00;1.00;;;;;;6325614;28;20447;-54
2022/06/26 15:57:52;;;;;;;4.70;4.60;;;31.80;1.00;;;;;;6323328;28;20759;-55
2022/06/26 16:00:56;;;;;;;4.50;4.15;;;31.50;1.00;;;;;;6313998;28;20316;-54
2022/06/26 16:04:01;;;;;;;5.15;4.80;;;31.30;1.00;;;;;;6337677;27;20291;-60
2022/06/26 16:07:10;;;;;;;5.05;4.90;;;31.20;1.00;;;;;;6331317;27;20704;-55
2022/06/26 16:10:16;;;;;;;5.00;4.90;;;31.10;1.00;;;;;;6314492;28;20281;-52
2022/06/26 16:13:19;;;;;;;5.22;5.03;;;31.00;1.00;;;;;;6328743;28;20232;-54
2022/06/26 16:16:37;;;;;;;4.80;4.55;;;30.90;1.00;;;;;;6327514;28;20406;-59
2022/06/26 16:19:41;;;;;;;4.50;4.40;;;30.80;1.00;;;;;;6325954;27;20232;-58